Los Posos, Valles Caldera, New Mexico Weather observations

Data are for 10 minute period ending at time listed.
 Day   Time   Solar   Ave.   Ave.  Ave.  Vector  Max.   Baro.   Total    
  of    of     Rad.   Air    Rel.  Wind   Wind   Wind  Press.  Precip.   
Year   Day            Temp.  Hum.  Speed  Dir.   Gust                    
2014   (MST)  Kw/m2    F      %     mph   deg.    mph    mb.     in.     
-------------------------------------------------------------------------
 262    2:30   0.00   43.0    94    1.5   248     3.0   99999.0    0.00 
 262    2:40   0.00   42.7    95    1.3   225     2.4   99999.0    0.00 
 262    2:50   0.00   43.0    95    0.1   177     1.8   99999.0    0.00 
 262    3:00   0.00   42.7    95    0.0     0     0.0   99999.0    0.00 
 262    3:10   0.00   43.0    95    0.1     1     2.4   99999.0    0.00 
 262    3:20   0.00   42.9    95    1.4   321     3.0   99999.0    0.00 
 262    3:30   0.00   42.2    95    1.2   280     2.4   99999.0    0.00 
 262    3:40   0.00   41.7    95    2.6   239     3.0   99999.0    0.00 
 262    3:50   0.00   41.8    95    0.7   201     2.4   99999.0    0.00 
 262    4:00   0.00   41.3    95    0.2   284     1.8   99999.0    0.00 
 262    4:10   0.00   40.8    95    0.6   293     1.8   99999.0    0.00 
 262    4:20   0.00   40.8    96    0.8   274     2.4   99999.0    0.00 
 262    4:30   0.00   40.9    96    0.8   298     2.4   99999.0    0.00 
 262    4:40   0.00   41.1    96    0.0     0     0.0   99999.0    0.00 
 262    4:50   0.00   41.8    96    0.1   255     1.8   99999.0    0.00 
 262    5:00   0.00   42.4    96    0.0   256     1.2   99999.0    0.00 
 262    5:10   0.00   41.8    96    1.0   353     3.0   99999.0    0.00 
 262    5:20   0.00   41.4    96    0.9   325     1.8   99999.0    0.00 
 262    5:30   0.00   41.9    96    1.0   283     1.8   99999.0    0.00 
 262    5:40   0.00   42.6    96    1.7   293     3.0   99999.0    0.00 
 262    5:50   0.00   42.7    96    1.5   312     3.0   99999.0    0.00 
 262    6:00   0.00   41.7    96    1.4     5     2.4   99999.0    0.00 
 262    6:10   0.01   41.1    96    0.6    23     2.4   99999.0    0.00 
 262    6:20   0.01   40.6    96    0.2   358     1.8   99999.0    0.00 
 262    6:30   0.03   40.5    96    0.1    58     1.2   99999.0    0.00 
 262    6:40   0.09   40.5    96    0.8   228     2.4   99999.0    0.00 
 262    6:50   0.12   42.7    96    0.2   234     1.8   99999.0    0.00 
 262    7:00   0.16   46.3    97    1.1    29     2.4   99999.0    0.00 
 262    7:10   0.21   49.2    97    1.5    43     2.4   99999.0    0.00 
 262    7:20   0.24   51.9    96    1.3    29     2.4   99999.0    0.00 
 262    7:30   0.28   53.8    88    1.8    24     2.4   99999.0    0.00 
 262    7:40   0.31   56.3    79    2.1   359     3.0   99999.0    0.00 
 262    7:50   0.35   59.0    71    1.9    43     3.6   99999.0    0.00 
 262    8:00   0.39   60.3    68    2.2    71     4.2   99999.0    0.00 
 262    8:10   0.42   62.2    61    1.6    72     2.4   99999.0    0.00 
 262    8:20   0.46   63.7    56    1.8    63     3.6   99999.0    0.00 
 262    8:30   0.49   62.7    56    2.3   156     4.8   99999.0    0.00 
 262    8:40   0.52   59.3    65    5.7   166     8.4   99999.0    0.00 
 262    8:50   0.56   58.4    66    5.0   163     6.6   99999.0    0.00 
 262    9:00   0.58   58.1    69    5.4   166     8.4   99999.0    0.00 
 262    9:10   0.66   58.4    68    5.5   169     8.4   99999.0    0.00 
 262    9:20   0.51   58.8    64    5.2   173     8.4   99999.0    0.00 
 262    9:30   0.44   59.0    64    6.6   151     9.6   99999.0    0.00 
 262    9:40   0.47   59.6    64    4.4   164     7.8   99999.0    0.00 
 262    9:50   0.74   63.6    57    3.6    86     6.0   99999.0    0.00 
 262   10:00   0.55   65.9    51    5.0   326    11.3   99999.0    0.00 
 262   10:10   0.71   65.9    50    7.7     4    12.5   99999.0    0.00 
 262   10:20   0.61   67.8    46    7.0   344    10.8   99999.0    0.00 
 262   10:30   0.39   66.7    47    4.8   336     9.0   99999.0    0.00 
 262   10:40   0.37   64.5    51    3.6   334     7.8   99999.0    0.00 
 262   10:50   0.64   64.7    50    4.9   353     9.6   99999.0    0.00 
 262   11:00   0.83   67.4    44    4.3    20     9.6   99999.0    0.00 
 262   11:10   0.90   70.0    40    6.8    65    11.9   99999.0    0.00 
 262   11:20   0.97   70.6    39    6.2    60    10.2   99999.0    0.00 
 262   11:30   0.94   70.2    41    5.7    88    11.3   99999.0    0.00 
 262   11:40   0.82   70.0    44    7.7    61    12.5   99999.0    0.00 
 262   11:50   0.25   67.9    44    5.7    82    10.2   99999.0    0.00 
 262   12:00   0.23   64.3    48    5.9    94     9.6   99999.0    0.00 
 262   12:10   0.46   64.7    48    4.0   100     6.0   99999.0    0.00 
 262   12:20   0.30   65.7    46    4.3    94     7.2   99999.0    0.00 
 262   12:30   0.45   65.8    48    4.5   115     8.4   99999.0    0.00 
 262   12:40   0.73   68.7    43    6.2    84    11.9   99999.0    0.00 
 262   12:50   0.76   69.9    40    6.8    84    13.7   99999.0    0.00 
 262   13:00   0.93   70.6    40    5.8   108    11.9   99999.0    0.00 
 262   13:10   0.70   70.3    41    6.2   120    14.3   99999.0    0.00 
 262   13:20   0.24   66.8    44    5.4   123    10.8   99999.0    0.00 
 262   13:30   0.19   67.2    39    4.8    38     9.0   99999.0    0.00 
 262   13:40   0.35   67.3    38    3.0   156     6.0   99999.0    0.00 
 262   13:50   0.85   68.8    46    6.9   193    11.3   99999.0    0.00 
 262   14:00   0.82   68.8    45    6.6   174    10.2   99999.0    0.00 
 262   14:10   0.72   70.0    42    5.4   227     9.6   99999.0    0.00 
 262   14:20   0.49   68.5    43    5.7   203    13.1   99999.0    0.00 
 262   14:30   0.47   69.7    38    4.9   248     9.0   99999.0    0.00 
 262   14:40   0.33   68.5    39    3.4   259     7.2   99999.0    0.00 
 262   14:50   0.55   71.0    34    3.2   252     6.6   99999.0    0.00 
 262   15:00   0.60   72.3    30    3.6   252     7.8   99999.0    0.00 
 262   15:10   0.63   72.7    29    5.9   296    10.2   99999.0    0.00 
 262   15:20   0.61   74.3    28    4.1   338     8.4   99999.0    0.00 
 262   15:30   0.61   71.8    36    7.0   154    13.1   99999.0    0.00 
 262   15:40   0.45   70.5    38    5.4   179     9.0   99999.0    0.00 
 262   15:50   0.51   70.0    40    4.9   180     9.0   99999.0    0.00 
 262   16:00   0.50   71.5    36    4.0   193     6.6   99999.0    0.00 
 262   16:10   0.44   71.7    35    4.3   195     7.8   99999.0    0.00 
 262   16:20   0.42   70.6    40    5.8   169    10.2   99999.0    0.00 
 262   16:30   0.40   70.2    42    5.2   194     9.6   99999.0    0.00 
 262   16:40   0.36   69.6    44    6.1   170    10.2   99999.0    0.00 
 262   16:50   0.33   69.1    44    5.3   192     9.6   99999.0    0.00 
 262   17:00   0.28   69.7    42    4.4   188     7.2   99999.0    0.00 
 262   17:10   0.24   68.5    46    5.2   168     8.4   99999.0    0.00 
 262   17:20   0.19   67.2    48    5.2   174     8.4   99999.0    0.00 
 262   17:30   0.15   65.6    52    4.7   168     6.6   99999.0    0.00 
 262   17:40   0.05   63.0    57    4.5   172     6.6   99999.0    0.00 
 262   17:50   0.01   61.5    60    4.7   177     7.8   99999.0    0.00 
 262   18:00   0.01   60.4    63    3.8   180     6.6   99999.0    0.00 
 262   18:10   0.01   59.5    64    3.9   183     6.6   99999.0    0.00 
 262   18:20   0.00   58.9    64    3.2   194     4.2   99999.0    0.00 
 262   18:30   0.00   58.1    66    3.8   203     6.0   99999.0    0.00 
 262   18:40   0.00   56.7    68    2.5   210     4.8   99999.0    0.00 
 262   18:50   0.00   53.7    75    0.6   250     2.4   99999.0    0.00 
 262   19:00   0.00   52.8    77    0.7   212     2.4   99999.0    0.00 
 262   19:10   0.00   52.2    78    1.0   195     2.4   99999.0    0.00 
 262   19:20   0.00   50.9    80    1.5   286     2.4   99999.0    0.00 
 262   19:30   0.00   50.0    82    1.0   260     3.0   99999.0    0.00 
 262   19:40   0.00   49.9    82    1.8   232     3.6   99999.0    0.00 
 262   19:50   0.00   49.4    83    0.9   233     3.0   99999.0    0.00 
 262   20:00   0.00   48.6    85    0.2    32     2.4   99999.0    0.00 
 262   20:10   0.00   47.9    86    0.6   246     2.4   99999.0    0.00 
 262   20:20   0.00   47.5    86    0.0   230     1.2   99999.0    0.00 
 262   20:30   0.00   47.6    87    1.1   248     2.4   99999.0    0.00 
 262   20:40   0.00   47.1    87    2.2   240     3.0   99999.0    0.00 
 262   20:50   0.00   47.1    88    0.6   226     2.4   99999.0    0.00 
 262   21:00   0.00   47.0    88    0.4   197     3.0   99999.0    0.00 
 262   21:10   0.00   46.9    87    1.9   235     3.0   99999.0    0.00 
 262   21:20   0.00   46.2    89    1.4   303     3.0   99999.0    0.00 
 262   21:30   0.00   45.6    89    1.0    70     3.0   99999.0    0.00 
 262   21:40   0.00   45.2    90    0.4   248     1.8   99999.0    0.00 
 262   21:50   0.00   44.8    91    0.5   275     1.8   99999.0    0.00 
 262   22:00   0.00   44.8    92    0.0     0     0.0   99999.0    0.00 
 262   22:10   0.00   44.7    92    0.6   212     1.8   99999.0    0.00 
 262   22:20   0.00   44.5    92    1.2   218     2.4   99999.0    0.00 
 262   22:30   0.00   44.9    93    1.0   295     2.4   99999.0    0.00 
 262   22:40   0.00   43.4    91    1.7   334     3.0   99999.0    0.00 
 262   22:50   0.00   42.9    92    0.1   317     1.8   99999.0    0.00 
 262   23:00   0.00   43.1    94    1.0   237     2.4   99999.0    0.00 
 262   23:10   0.00   43.4    94    1.9   239     2.4   99999.0    0.00 
 262   23:20   0.00   43.7    94    0.2   249     1.8   99999.0    0.00 
 262   23:30   0.00   43.7    94    0.0     0     0.0   99999.0    0.00 
 262   23:40   0.00   43.5    94    0.8   298     2.4   99999.0    0.00 
 262   23:50   0.00   43.3    94    1.3   243     2.4   99999.0    0.00 
 263    0:00   0.00   43.2    95    0.6   287     1.8   99999.0    0.00 
 263    0:10   0.00   42.7    95    0.0   254     1.2   99999.0    0.00 
 263    0:20   0.00   42.5    95    0.0     0     0.0   99999.0    0.00 
 263    0:30   0.00   42.4    95    0.5   252     3.0   99999.0    0.00 
 263    0:40   0.00   42.2    95    0.1   274     2.4   99999.0    0.00 
 263    0:50   0.00   42.0    95    1.3   250     3.0   99999.0    0.00 
 263    1:00   0.00   42.1    95    0.9   250     1.8   99999.0    0.00 
 263    1:10   0.00   42.3    96    1.5   243     3.0   99999.0    0.00 
 263    1:20   0.00   42.3    96    0.0   286     1.2   99999.0    0.00 
 263    1:30   0.00   42.2    96    1.3   232     3.0   99999.0    0.00 
 263    1:40   0.00   42.4    96    0.1   214     2.4   99999.0    0.00 
 263    1:50   0.00   41.9    96    0.2   239     1.2   99999.0    0.00 
 263    2:00   0.00   41.5    96    0.0     0     0.0   99999.0    0.00 
 263    2:10   0.00   41.1    96    0.0     0     0.0   99999.0    0.00 
 263    2:20   0.00   40.9    96    0.5   290     1.8   99999.0    0.00 

Return to Los Posos, Valles Caldera graphs page.


Western Regional Climate Center,wrcc@dri.edu